createdAt,value
2018-06-25T00:02:06.717Z,54.41
2018-06-25T00:04:36.248Z,53.70
2018-06-25T00:07:06.049Z,54.30
2018-06-25T00:09:35.737Z,53.97
2018-06-25T00:12:05.980Z,54.02
2018-06-25T00:14:35.577Z,53.98
2018-06-25T00:17:05.438Z,53.59
2018-06-25T00:19:35.146Z,54.43
2018-06-25T00:22:04.725Z,54.07
2018-06-25T00:24:34.226Z,54.41
2018-06-25T00:27:03.780Z,54.44
2018-06-25T00:29:33.307Z,53.66
2018-06-25T00:32:02.828Z,53.97
2018-06-25T00:34:33.351Z,53.33
2018-06-25T00:37:02.864Z,53.49
2018-06-25T00:39:32.372Z,53.77
2018-06-25T00:42:01.964Z,54.43
2018-06-25T00:44:31.492Z,53.67
2018-06-25T00:47:01.009Z,54.00
2018-06-25T00:49:30.527Z,53.86
2018-06-25T00:52:00.048Z,53.65
2018-06-25T00:54:29.570Z,53.45
2018-06-25T00:56:59.057Z,53.95
2018-06-25T00:59:45.397Z,53.10
2018-06-25T01:02:14.933Z,54.00
2018-06-25T01:04:44.433Z,53.82
2018-06-25T01:07:13.950Z,53.11
2018-06-25T01:09:43.596Z,53.95
2018-06-25T01:12:13.447Z,53.96
2018-06-25T01:14:43.392Z,53.27
2018-06-25T01:17:12.978Z,53.68
2018-06-25T01:19:42.438Z,53.61
2018-06-25T01:22:12.012Z,53.83
2018-06-25T01:24:41.530Z,53.60
2018-06-25T01:27:11.493Z,53.81
2018-06-25T01:29:42.077Z,54.11
2018-06-25T01:32:11.573Z,53.54
2018-06-25T01:34:41.129Z,54.70
2018-06-25T01:37:10.751Z,54.66
2018-06-25T01:39:40.322Z,54.30
2018-06-25T01:42:09.842Z,54.46
2018-06-25T01:44:39.362Z,54.43
2018-06-25T01:47:08.926Z,54.81
2018-06-25T01:49:38.446Z,54.73
2018-06-25T01:52:08.151Z,53.96
2018-06-25T01:54:37.681Z,54.47
2018-06-25T01:57:08.048Z,53.77
2018-06-25T01:59:37.630Z,53.46
2018-06-25T02:02:07.144Z,54.38
2018-06-25T02:04:36.738Z,54.22
2018-06-25T02:07:06.574Z,54.69
2018-06-25T02:12:04.530Z,54.81
2018-06-25T02:14:34.130Z,54.74
2018-06-25T02:17:03.694Z,54.65
2018-06-25T02:19:33.256Z,54.71
2018-06-25T02:22:02.992Z,54.37
2018-06-25T02:24:32.499Z,54.92
2018-06-25T02:27:02.568Z,54.93
2018-06-25T02:29:32.103Z,54.29
2018-06-25T02:32:01.628Z,54.64
2018-06-25T02:34:31.328Z,54.42
2018-06-25T02:37:00.835Z,54.67
2018-06-25T02:39:30.328Z,54.84
2018-06-25T02:41:59.862Z,54.28
2018-06-25T02:44:29.345Z,54.21
2018-06-25T02:46:58.892Z,54.84
2018-06-25T02:49:28.406Z,54.76
2018-06-25T02:51:58.027Z,54.73
2018-06-25T02:54:27.646Z,55.18
2018-06-25T02:57:03.373Z,55.00
2018-06-25T02:59:32.928Z,54.84
2018-06-25T03:02:02.524Z,54.26
2018-06-25T03:04:32.170Z,54.69
2018-06-25T03:07:01.920Z,54.32
2018-06-25T03:09:31.488Z,54.19
2018-06-25T03:12:01.065Z,54.25
2018-06-25T03:14:30.665Z,54.82
2018-06-25T03:17:00.193Z,54.35
2018-06-25T03:19:29.823Z,53.86
2018-06-25T03:21:59.361Z,54.50
2018-06-25T03:24:28.927Z,54.47
2018-06-25T03:26:58.432Z,54.71
2018-06-25T03:29:27.946Z,53.89
2018-06-25T03:31:57.439Z,54.22
2018-06-25T03:34:27.111Z,54.06
2018-06-25T03:36:57.247Z,54.27
2018-06-25T03:39:26.927Z,53.79
2018-06-25T03:41:56.646Z,53.62
2018-06-25T03:44:26.180Z,53.70
2018-06-25T03:46:55.822Z,53.18
2018-06-25T03:49:25.330Z,53.63
2018-06-25T03:51:54.978Z,53.35
2018-06-25T03:54:24.530Z,53.22
2018-06-25T03:56:53.990Z,53.31
2018-06-25T03:59:24.254Z,53.61
2018-06-25T04:01:54.392Z,52.98
2018-06-25T04:04:23.909Z,53.07
2018-06-25T04:06:53.439Z,52.90
2018-06-25T04:09:23.027Z,52.89
2018-06-25T04:11:52.609Z,52.40
2018-06-25T04:14:22.102Z,52.13
2018-06-25T04:16:51.651Z,52.63
2018-06-25T04:19:21.243Z,52.58
2018-06-25T04:21:50.721Z,52.39
2018-06-25T04:24:20.213Z,51.86
2018-06-25T04:26:49.717Z,52.22
2018-06-25T04:29:19.209Z,52.06
2018-06-25T04:31:48.891Z,52.00
2018-06-25T04:34:18.339Z,51.27
2018-06-25T04:36:47.805Z,51.90
2018-06-25T04:39:17.309Z,52.23
2018-06-25T04:41:46.869Z,51.41
2018-06-25T04:44:16.387Z,51.32
2018-06-25T04:46:45.861Z,51.32
2018-06-25T04:49:15.385Z,51.04
2018-06-25T04:51:44.923Z,51.80
2018-06-25T04:54:14.173Z,51.08
2018-06-25T04:56:43.818Z,51.42
2018-06-25T04:59:13.321Z,51.65
2018-06-25T05:01:42.987Z,50.84
2018-06-25T05:04:12.463Z,50.95
2018-06-25T05:06:42.010Z,50.94
2018-06-25T05:09:11.823Z,51.60
2018-06-25T05:11:41.729Z,50.84
2018-06-25T05:14:11.235Z,51.49
2018-06-25T05:16:40.771Z,51.10
2018-06-25T05:19:10.241Z,50.72
2018-06-25T05:21:39.753Z,50.00
2018-06-25T05:24:09.211Z,50.10
2018-06-25T05:26:38.741Z,49.53
2018-06-25T05:29:08.284Z,49.15
2018-06-25T05:31:37.838Z,49.93
2018-06-25T05:34:07.341Z,48.72
2018-06-25T05:36:36.917Z,48.11
2018-06-25T05:39:10.333Z,47.96
2018-06-25T05:41:40.244Z,48.10
2018-06-25T05:44:09.725Z,48.17
2018-06-25T05:46:38.958Z,47.90
2018-06-25T05:49:08.727Z,48.09
2018-06-25T05:51:39.193Z,47.62
2018-06-25T05:54:08.739Z,47.66
2018-06-25T05:56:38.239Z,47.36
2018-06-25T05:59:07.763Z,46.44
2018-06-25T06:01:37.383Z,46.11
2018-06-25T06:04:07.014Z,46.68
2018-06-25T06:06:36.505Z,45.57
2018-06-25T06:09:08.742Z,45.50
2018-06-25T06:11:38.398Z,44.96
2018-06-25T06:14:08.008Z,45.39
2018-06-25T06:16:37.481Z,44.75
2018-06-25T06:19:07.106Z,43.79
2018-06-25T06:21:36.674Z,43.52
2018-06-25T06:24:06.231Z,43.79
2018-06-25T06:26:35.695Z,42.90
2018-06-25T06:29:05.261Z,42.85
2018-06-25T06:31:35.040Z,43.21
2018-06-25T06:34:04.605Z,41.89
2018-06-25T06:36:34.151Z,41.72
2018-06-25T06:39:04.014Z,41.74
2018-06-25T06:41:33.557Z,40.70
2018-06-25T06:44:03.046Z,40.92
2018-06-25T06:46:32.523Z,40.21
2018-06-25T06:49:02.207Z,40.43
2018-06-25T06:51:32.187Z,39.99
2018-06-25T06:54:01.981Z,40.95
2018-06-25T06:56:31.509Z,41.67
2018-06-25T06:59:01.016Z,41.84
2018-06-25T07:01:30.969Z,42.03
2018-06-25T07:04:00.482Z,41.58
2018-06-25T07:06:30.055Z,41.04
2018-06-25T07:08:59.609Z,41.36
2018-06-25T07:11:29.151Z,41.47
2018-06-25T07:13:58.638Z,40.10
2018-06-25T07:16:28.124Z,40.41
2018-06-25T07:18:57.739Z,39.80
2018-06-25T07:21:27.260Z,38.87
2018-06-25T07:23:56.840Z,39.16
2018-06-25T07:26:26.789Z,38.91
2018-06-25T07:28:57.117Z,38.82
2018-06-25T07:31:26.669Z,38.26
2018-06-25T07:33:56.233Z,38.08
2018-06-25T07:36:25.732Z,38.02
2018-06-25T07:38:55.260Z,37.21
2018-06-25T07:41:24.769Z,37.09
2018-06-25T07:43:54.762Z,36.67
2018-06-25T07:46:24.300Z,36.34
2018-06-25T07:48:54.096Z,37.11
2018-06-25T07:51:23.629Z,36.94
2018-06-25T07:53:53.182Z,37.00
2018-06-25T07:56:22.753Z,36.82
2018-06-25T07:58:52.261Z,36.91
2018-06-25T08:01:21.905Z,35.84
2018-06-25T08:03:51.537Z,36.14
2018-06-25T08:06:21.070Z,37.00
2018-06-25T08:08:50.569Z,36.58
2018-06-25T08:11:20.647Z,36.56
2018-06-25T08:13:50.163Z,36.48
2018-06-25T08:16:19.827Z,35.57
2018-06-25T08:18:49.367Z,35.49
2018-06-25T08:21:18.902Z,34.40
2018-06-25T08:23:48.938Z,33.43
2018-06-25T08:26:18.450Z,34.83
2018-06-25T08:28:47.993Z,34.32
2018-06-25T08:31:17.600Z,34.22
2018-06-25T08:33:47.993Z,32.92
2018-06-25T08:36:17.611Z,33.04
2018-06-25T08:38:47.159Z,32.48
2018-06-25T08:41:17.422Z,33.62
2018-06-25T08:43:47.213Z,32.11
2018-06-25T08:46:17.479Z,31.50
2018-06-25T08:48:47.833Z,31.14
2018-06-25T08:51:18.108Z,31.28
2018-06-25T08:53:47.743Z,30.54
2018-06-25T08:56:17.425Z,31.14
2018-06-25T08:58:46.942Z,31.08
2018-06-25T09:01:16.552Z,30.62
2018-06-25T09:03:45.803Z,32.65
2018-06-25T09:06:15.287Z,32.13
2018-06-25T09:08:44.793Z,32.92
2018-06-25T09:11:14.239Z,32.24
2018-06-25T09:13:43.843Z,31.42
2018-06-25T09:16:13.313Z,30.95
2018-06-25T09:18:42.825Z,30.08
2018-06-25T09:21:12.331Z,29.30
2018-06-25T09:23:41.954Z,27.13
2018-06-25T09:26:11.502Z,25.30
2018-06-25T09:28:40.995Z,23.40
2018-06-25T09:31:10.495Z,25.77
2018-06-25T09:33:39.996Z,26.58
2018-06-25T09:36:09.246Z,25.76
2018-06-25T09:38:38.907Z,25.28
2018-06-25T09:41:08.485Z,25.55
2018-06-25T09:43:37.998Z,24.52
2018-06-25T09:46:07.845Z,23.39
2018-06-25T09:48:37.396Z,23.34
2018-06-25T09:51:06.908Z,23.15
2018-06-25T09:53:36.601Z,22.53
2018-06-25T09:56:06.787Z,21.68
2018-06-25T09:58:37.106Z,23.11
2018-06-25T10:01:09.963Z,22.29
2018-06-25T10:03:39.806Z,22.47
2018-06-25T10:06:09.338Z,22.98
2018-06-25T10:08:39.190Z,24.58
2018-06-25T10:11:08.811Z,25.73
2018-06-25T10:13:38.377Z,25.93
2018-06-25T10:16:08.014Z,24.59
2018-06-25T10:18:37.549Z,24.19
2018-06-25T10:21:07.171Z,24.83
2018-06-25T10:23:36.373Z,23.30
2018-06-25T10:26:05.890Z,22.86
2018-06-25T10:28:35.445Z,21.65
2018-06-25T10:31:04.960Z,23.51
2018-06-25T10:33:34.473Z,23.77
2018-06-25T10:36:04.431Z,24.17
2018-06-25T10:38:35.105Z,24.60
2018-06-25T10:41:04.634Z,25.38
2018-06-25T10:43:34.148Z,26.53
2018-06-25T10:46:03.636Z,25.35
2018-06-25T10:48:34.091Z,25.29
2018-06-25T10:51:04.504Z,23.84
2018-06-25T10:53:34.099Z,25.43
2018-06-25T10:56:04.586Z,25.70
2018-06-25T10:58:33.779Z,25.89
2018-06-25T11:01:03.532Z,25.93
2018-06-25T11:03:33.089Z,25.54
2018-06-25T11:06:02.562Z,24.91
2018-06-25T11:08:32.039Z,23.86
2018-06-25T11:11:01.570Z,23.07
2018-06-25T11:13:31.119Z,23.36
2018-06-25T11:16:00.590Z,23.87
2018-06-25T11:18:30.108Z,24.94
2018-06-25T11:20:59.726Z,23.65
2018-06-25T11:23:30.030Z,23.09
2018-06-25T11:25:59.536Z,23.41
2018-06-25T11:28:29.048Z,24.07
2018-06-25T11:30:58.474Z,22.73
2018-06-25T11:33:27.901Z,22.19
2018-06-25T11:35:57.536Z,22.45
2018-06-25T11:38:26.722Z,21.35
2018-06-25T11:40:56.239Z,22.96
2018-06-25T11:43:25.866Z,22.91
2018-06-25T11:45:55.540Z,23.24
2018-06-25T11:48:25.057Z,23.11
2018-06-25T11:50:54.579Z,22.17
2018-06-25T11:53:24.094Z,21.14
2018-06-25T11:55:53.586Z,21.61
2018-06-25T11:58:23.152Z,19.94
2018-06-25T12:00:53.221Z,18.84
2018-06-25T12:03:22.761Z,18.21
2018-06-25T12:05:52.058Z,16.94
2018-06-25T12:08:21.592Z,15.56
2018-06-25T12:10:51.065Z,15.06
2018-06-25T12:13:20.572Z,14.57
2018-06-25T12:15:50.006Z,14.48
2018-06-25T12:18:19.619Z,13.20
2018-06-25T12:20:49.157Z,13.14
2018-06-25T12:23:19.373Z,12.88
2018-06-25T12:25:48.854Z,12.15
2018-06-25T12:28:18.302Z,12.46
2018-06-25T12:30:47.743Z,12.26
2018-06-25T12:33:17.269Z,11.87
2018-06-25T12:35:46.736Z,12.37
2018-06-25T12:38:16.226Z,12.17
2018-06-25T12:40:45.683Z,12.23
2018-06-25T12:43:15.377Z,13.70
2018-06-25T12:45:44.810Z,12.66
2018-06-25T12:48:14.327Z,13.86
2018-06-25T12:50:43.546Z,13.92
2018-06-25T12:53:13.261Z,12.97
2018-06-25T12:55:42.869Z,12.42
2018-06-25T12:58:12.318Z,11.63
2018-06-25T13:00:41.780Z,11.64
2018-06-25T13:03:11.441Z,10.97
2018-06-25T13:05:40.966Z,12.34
2018-06-25T13:08:10.558Z,13.86
2018-06-25T13:10:41.197Z,13.07
2018-06-25T13:13:10.672Z,11.82
2018-06-25T13:15:40.242Z,15.16
2018-06-25T13:18:09.808Z,13.65
2018-06-25T13:20:39.757Z,14.88
2018-06-25T13:23:10.571Z,14.82
2018-06-25T13:25:40.082Z,13.55
2018-06-25T13:28:09.566Z,15.38
2018-06-25T13:30:39.589Z,14.61
2018-06-25T13:33:10.722Z,12.91
2018-06-25T13:35:43.547Z,15.38
2018-06-25T13:38:18.072Z,15.59
2018-06-25T13:40:53.445Z,16.15
2018-06-25T13:43:25.871Z,17.24
2018-06-25T13:45:58.615Z,17.96
2018-06-25T13:48:32.053Z,16.79
2018-06-25T13:51:02.198Z,15.48
2018-06-25T13:53:34.034Z,16.51
2018-06-25T13:56:07.611Z,17.07
2018-06-25T13:58:42.661Z,18.98
2018-06-25T14:01:13.436Z,18.62
2018-06-25T14:03:47.934Z,18.95
2018-06-25T14:06:20.164Z,20.42
2018-06-25T14:08:52.189Z,20.11
2018-06-25T14:11:23.716Z,19.56
2018-06-25T14:13:53.249Z,19.33
2018-06-25T14:16:22.904Z,19.43
2018-06-25T14:18:52.440Z,19.82
2018-06-25T14:21:22.026Z,20.62
2018-06-25T14:23:56.842Z,20.72
2018-06-25T14:26:30.573Z,20.17
2018-06-25T14:29:00.101Z,20.34
2018-06-25T14:31:29.819Z,19.82
2018-06-25T14:34:05.370Z,19.82
2018-06-25T14:36:35.986Z,19.98
2018-06-25T14:39:10.054Z,19.95
2018-06-25T14:41:39.740Z,20.29
2018-06-25T14:44:09.424Z,20.35
2018-06-25T14:46:39.277Z,19.11
2018-06-25T14:49:09.471Z,19.17
2018-06-25T14:51:39.170Z,19.22
2018-06-25T14:54:09.176Z,18.70
2018-06-25T14:56:39.122Z,19.30
2018-06-25T14:59:08.644Z,19.28
2018-06-25T15:01:38.337Z,19.33
2018-06-25T15:04:07.943Z,19.24
2018-06-25T15:06:37.497Z,18.89
2018-06-25T15:09:10.708Z,19.21
2018-06-25T15:11:40.255Z,20.08
2018-06-25T15:14:10.836Z,20.19
2018-06-25T15:16:40.834Z,21.05
2018-06-25T15:19:10.494Z,21.06
2018-06-25T15:21:40.104Z,21.25
2018-06-25T15:24:13.966Z,21.06
2018-06-25T15:26:47.535Z,21.62
2018-06-25T15:29:17.188Z,21.17
2018-06-25T15:31:47.254Z,21.20
2018-06-25T15:34:17.032Z,20.59
2018-06-25T15:36:58.168Z,21.83
2018-06-25T15:39:27.913Z,18.99
2018-06-25T15:41:57.570Z,18.43
2018-06-25T15:44:27.858Z,18.87
2018-06-25T15:46:58.501Z,19.02
2018-06-25T15:49:28.651Z,18.74
2018-06-25T15:51:59.383Z,18.46
2018-06-25T15:54:28.924Z,17.94
2018-06-25T15:57:03.508Z,17.07
2018-06-25T15:59:33.300Z,17.08
2018-06-25T16:02:05.607Z,18.91
2018-06-25T16:04:35.527Z,16.92
2018-06-25T16:07:05.928Z,16.17
2018-06-25T16:09:35.546Z,16.39
2018-06-25T16:12:05.358Z,16.76
2018-06-25T16:14:36.016Z,16.65
2018-06-25T16:17:06.029Z,16.39
2018-06-25T16:19:40.521Z,17.06
2018-06-25T16:22:10.384Z,17.90
2018-06-25T16:24:40.011Z,19.18
2018-06-25T16:27:13.153Z,20.21
2018-06-25T16:29:43.698Z,21.15
2018-06-25T16:32:14.857Z,23.09
2018-06-25T16:34:44.908Z,23.70
2018-06-25T16:37:14.486Z,24.76
2018-06-25T16:39:44.280Z,25.34
2018-06-25T16:42:13.754Z,24.64
2018-06-25T16:44:43.444Z,23.00
2018-06-25T16:47:13.174Z,22.74
2018-06-25T16:49:46.318Z,22.10
2018-06-25T16:52:16.373Z,22.02
2018-06-25T16:54:45.940Z,22.99
2018-06-25T16:57:15.440Z,22.23
2018-06-25T16:59:46.170Z,23.95
2018-06-25T17:02:16.319Z,24.74
2018-06-25T17:04:46.162Z,25.65
2018-06-25T17:07:15.844Z,26.65
2018-06-25T17:09:45.659Z,25.50
2018-06-25T17:12:15.246Z,23.91
2018-06-25T17:14:45.087Z,23.40
2018-06-25T17:17:14.970Z,23.82
2018-06-25T17:19:44.564Z,23.44
2018-06-25T17:22:14.405Z,23.48
2018-06-25T17:24:43.989Z,24.13
2018-06-25T17:27:13.493Z,24.04
2018-06-25T17:29:43.428Z,23.83
2018-06-25T17:32:12.874Z,23.90
2018-06-25T17:34:44.027Z,24.84
2018-06-25T17:37:15.525Z,24.16
2018-06-25T17:39:45.526Z,24.17
2018-06-25T17:42:15.130Z,24.90
2018-06-25T17:44:44.757Z,24.69
2018-06-25T17:47:14.259Z,24.02
2018-06-25T17:49:43.963Z,23.76
2018-06-25T17:52:13.434Z,23.40
2018-06-25T17:54:43.051Z,24.46
2018-06-25T17:57:12.600Z,24.02
2018-06-25T17:59:42.103Z,24.08
2018-06-25T18:02:11.807Z,24.60
2018-06-25T18:04:41.309Z,25.15
2018-06-25T18:07:12.393Z,25.18
2018-06-25T18:09:41.905Z,25.27
2018-06-25T18:12:11.766Z,24.56
2018-06-25T18:14:41.328Z,24.65
2018-06-25T18:17:10.763Z,24.00
2018-06-25T18:19:44.343Z,24.09
2018-06-25T18:22:18.776Z,23.87
2018-06-25T18:24:48.291Z,24.19
2018-06-25T18:27:18.075Z,24.24
2018-06-25T18:29:48.639Z,24.60
2018-06-25T18:32:19.032Z,23.91
2018-06-25T18:34:48.539Z,23.68
2018-06-25T18:37:18.052Z,24.06
2018-06-25T18:39:47.576Z,25.35
2018-06-25T18:42:17.099Z,25.34
2018-06-25T18:44:46.583Z,26.06
2018-06-25T18:47:16.079Z,26.38
2018-06-25T18:49:45.565Z,26.11
2018-06-25T18:52:15.143Z,27.25
2018-06-25T18:54:44.622Z,27.17
2018-06-25T18:57:14.288Z,27.92
2018-06-25T18:59:43.761Z,30.06
2018-06-25T19:02:13.268Z,30.61
2018-06-25T19:04:42.831Z,32.32
2018-06-25T19:07:12.368Z,33.53
2018-06-25T19:09:42.186Z,34.12
2018-06-25T19:12:11.764Z,33.95
2018-06-25T19:14:41.341Z,34.78
2018-06-25T19:17:10.926Z,35.21
2018-06-25T19:19:40.491Z,36.37
2018-06-25T19:22:10.482Z,36.28
2018-06-25T19:24:40.854Z,36.39
2018-06-25T19:27:10.488Z,35.43
2018-06-25T19:29:40.194Z,35.88
2018-06-25T19:32:09.691Z,37.86
2018-06-25T19:34:39.165Z,37.70
2018-06-25T19:37:13.290Z,40.16
2018-06-25T19:39:44.022Z,39.34
2018-06-25T19:42:13.616Z,40.07
2018-06-25T19:44:43.220Z,41.24
2018-06-25T19:47:13.472Z,41.14
2018-06-25T19:49:42.991Z,41.92
2018-06-25T19:52:12.505Z,41.86
2018-06-25T19:54:42.034Z,41.80
2018-06-25T19:57:11.549Z,43.48
2018-06-25T19:59:41.064Z,44.74
2018-06-25T20:02:11.051Z,45.01
2018-06-25T20:04:40.794Z,44.58
2018-06-25T20:07:10.825Z,44.72
2018-06-25T20:09:41.274Z,45.36
2018-06-25T20:12:11.598Z,45.56
2018-06-25T20:14:41.520Z,45.67
2018-06-25T20:17:11.013Z,46.60
2018-06-25T20:19:40.633Z,46.90
2018-06-25T20:22:11.751Z,46.60
2018-06-25T20:24:41.392Z,47.17
2018-06-25T20:27:14.419Z,48.02
2018-06-25T20:29:46.425Z,48.16
2018-06-25T20:32:16.055Z,47.76
2018-06-25T20:34:45.691Z,48.26
2018-06-25T20:37:15.465Z,48.39
2018-06-25T20:39:45.264Z,48.77
2018-06-25T20:42:15.489Z,48.82
2018-06-25T20:44:49.798Z,48.62
2018-06-25T20:47:20.098Z,49.79
2018-06-25T20:49:50.387Z,50.23
2018-06-25T20:52:20.171Z,49.97
2018-06-25T20:54:50.767Z,49.85
2018-06-25T20:57:31.037Z,50.64
2018-06-25T21:00:00.800Z,51.09
2018-06-25T21:02:30.528Z,50.98
2018-06-25T21:05:00.381Z,50.42
2018-06-25T21:07:32.338Z,50.67
2018-06-25T21:10:02.027Z,51.37
2018-06-25T21:12:31.645Z,51.99
2018-06-25T21:15:01.253Z,52.15
2018-06-25T21:17:31.194Z,52.30
2018-06-25T21:20:00.812Z,52.35
2018-06-25T21:22:30.407Z,52.28
2018-06-25T21:25:00.018Z,52.93
2018-06-25T21:27:29.663Z,52.63
2018-06-25T21:30:00.369Z,53.38
2018-06-25T21:32:30.105Z,52.83
2018-06-25T21:34:59.721Z,52.75
2018-06-25T21:37:29.373Z,53.07
2018-06-25T21:39:59.021Z,53.34
2018-06-25T21:42:35.155Z,54.51
2018-06-25T21:45:07.013Z,53.72
2018-06-25T21:47:36.733Z,54.10
2018-06-25T21:50:06.651Z,53.72
2018-06-25T21:52:36.408Z,53.44
2018-06-25T21:55:06.302Z,53.32
2018-06-25T21:57:36.103Z,53.54
2018-06-25T22:00:10.351Z,54.24
2018-06-25T22:02:39.947Z,53.68
2018-06-25T22:05:09.781Z,54.30
2018-06-25T22:07:39.517Z,54.74
2018-06-25T22:10:09.221Z,54.07
2018-06-25T22:12:38.989Z,54.09
2018-06-25T22:15:09.135Z,55.41
2018-06-25T22:17:38.697Z,55.08
2018-06-25T22:20:08.225Z,55.95
2018-06-25T22:22:38.296Z,55.64
2018-06-25T22:25:08.175Z,55.26
2018-06-25T22:27:37.869Z,54.61
2018-06-25T22:30:07.491Z,55.44
2018-06-25T22:32:37.201Z,55.20
2018-06-25T22:35:07.058Z,55.02
2018-06-25T22:37:36.845Z,56.32
2018-06-25T22:40:07.151Z,55.59
2018-06-25T22:42:39.233Z,56.37
2018-06-25T22:45:16.069Z,55.50
2018-06-25T22:47:45.931Z,55.02
2018-06-25T22:50:16.397Z,55.92
2018-06-25T22:52:46.993Z,56.43
2018-06-25T22:55:16.752Z,55.67
2018-06-25T22:57:47.410Z,56.51
2018-06-25T23:00:17.421Z,56.82
2018-06-25T23:02:47.293Z,56.04
2018-06-25T23:05:31.924Z,55.98
2018-06-25T23:08:01.931Z,56.04
2018-06-25T23:10:31.816Z,56.58
2018-06-25T23:13:01.664Z,55.66
2018-06-25T23:15:35.147Z,56.01
2018-06-25T23:18:05.208Z,56.23
2018-06-25T23:20:34.757Z,56.59
2018-06-25T23:23:04.415Z,56.34
2018-06-25T23:25:33.944Z,57.16
2018-06-25T23:28:03.533Z,57.06
2018-06-25T23:30:33.007Z,56.49
2018-06-25T23:33:02.862Z,56.96
2018-06-25T23:35:32.885Z,57.78
2018-06-25T23:38:02.987Z,57.26
2018-06-25T23:40:32.593Z,57.41
2018-06-25T23:43:02.170Z,57.36
2018-06-25T23:45:33.957Z,57.00
2018-06-25T23:48:03.451Z,56.89
2018-06-25T23:50:33.110Z,57.18
2018-06-25T23:53:04.241Z,57.01
2018-06-25T23:55:33.765Z,56.72
2018-06-25T23:58:08.419Z,57.23
